Pagrindinis puslapis
METAR-TAF:

METAR-TAF

Oro uostai :

Uhanas, Kinija

platuma: 30-37N, ilguma: 114-08E, Aukštis: 23 m

Dabartinis oras

Ataskaita buvo paskelbta 55 minutes, ne 09:00 UTC
Vėjas 8 kt iš Pietvakarių
Temperatūra 23°C
Drėgmė 57%
Slėgis 1011 hPa
Matomumas 10 km arba daugiau
nėra debesų žemiau 1500 m ir nėra kamuolinių lietaus debesų

METAR: ZHHH 240900Z 23004MPS CAVOK 23/14 Q1011 NOSIG

Laikas: 17:55 (09:55 UTC)

Prognozė

Ataskaita buvo paskelbta 6 valandos ir 50 minutes, ne 03:05 UTC
Prognozė galioja nuo 24 metu 06 UTC su 25 metu 06 UTC
Vėjas 8 kt iš Pietų
Matomumas: 6000 m
Tapsmas
nuo 25 metu 04 UTC su 25 metu 05 UTC
Vėjas 10 kt iš Šiaurės/Šiaurės Rytų
Matomumas: 3000 m
lietus, rūkana

TAF: ZHHH 240305Z 2406/2506 17004MPS 6000 NSC TX24/2407Z TN14/2422Z BECMG 2504/2505 03005MPS 3000 -RA BR

Orai ataskaitas ir orų prognozės (METAR, TAF).

turimą stotys yra geltonos ir raudonos taškus žemėlapyje.

Perkelti pele per norėdami pamatyti stoties vardą.

Tada spustelėkite, norėdami matyti oro stebėjimo ir prognozės.

Norėdami pakeisti žemėlapį: spustelėkite ant žalios mygtukų su juodo kryžiaus žemyn,; žalią mygtuką su brūkšneliu, jei norite nutolinti; arba žalių rodyklių gretimoms žemėlapius.


METAR-TAF: